Kirwin, KS (67644)

8:50 PM CDT on May 29, 2015 (GMT -0500)
Sarrada Farms 0.1 mi W | | Change Station
CLOSE
Current Station
Personal Weather Station
Location: Logan, KS
Elevation: 2021 ft
Nearby Weather Stations

Elev 2021 ft 39.66 °N, 99.58 °W | Updated 5 seconds ago

Overcast
Overcast
59.2 °F
Feels Like 59.2 °F
N
21.9
Wind Variable Wind from NNE
Gusts 26.0 mph

Today
High -- | Low -- °F
--% Chance of Precip.
Yesterday
High -- | Low -- °F
Precip. -- in
6:12 AM 8:55 PM
Waxing Gibbous, 87% visible
Pressure 30.10 in
Visibility 10.0 miles
Clouds Mostly Cloudy 1900 ft
Mostly Cloudy 2400 ft
Dew Point 55 °F
Humidity 85%
Rainfall 0.17 in
Snow Depth Not available.
UV 0 out of 12
Pollen 3.90 out of 12
Air Quality Not available.
Flu Activity No Activity
SPECI KHLC 300117Z AUTO 01013G20KT 10SM BKN019 BKN024 16/14 A3010 RMK AO2 T01610139

More Conditions Fewer Conditions

Pressure 30.10 in
Visibility 10.0 miles
Clouds Mostly Cloudy 1900 ft
Mostly Cloudy 2400 ft
Dew Point 55 °F
Humidity 85%
Rainfall 0.17 in
Snow Depth Not available.
UV 0 out of 12
Pollen 3.90 out of 12
Air Quality Not available.
Flu Activity No Activity
SPECI KHLC 300117Z AUTO 01013G20KT 10SM BKN019 BKN024 16/14 A3010 RMK AO2 T01610139

More Conditions Fewer Conditions

10-Day Weather Forecast

Almanac

Astronomy

May. 29, 2015 Rise Set
Actual Time
Civil Twilight
Nautical Twilight
Astronomical Twilight
Moon
Length of Visible Light
Length of Day
Tomorrow will be .
, % of the Moon is Illuminated

Today's Extremes

State Highs State Lows

Community

WunderPhotos

Upload Photos

1,825,415 photos uploaded!

WunderBlogs® & News

Nearby

Air Quality

  Air Quality AQ Index Pollutant
Not available.

Snow Depth

Station Depth Elevation

Earthquake Activity

City Distance Mag. Time & Date
Minimum magnitude displayed is 2.5.

Coastal Water Temperatures

Place Temperature

Stations

Nearby Weather Stations

Station Location Temp. Windchill Dew Point Humidity Wind Precip. Elev Updated Type